createdAt,value
2019-02-26T00:02:11.047Z,41.27
2019-02-26T00:04:42.821Z,41.29
2019-02-26T00:07:18.245Z,41.29
2019-02-26T00:09:51.308Z,41.30
2019-02-26T00:12:26.273Z,41.34
2019-02-26T00:14:59.672Z,41.35
2019-02-26T00:17:36.161Z,41.36
2019-02-26T00:20:10.239Z,41.40
2019-02-26T00:22:42.204Z,41.63
2019-02-26T00:25:15.322Z,41.86
2019-02-26T00:28:10.863Z,42.13
2019-02-26T00:30:48.149Z,42.24
2019-02-26T00:33:25.204Z,42.25
2019-02-26T00:36:06.639Z,42.29
2019-02-26T00:41:58.219Z,42.20
2019-02-26T00:44:38.254Z,42.14
2019-02-26T00:47:14.392Z,42.26
2019-02-26T00:49:51.007Z,42.48
2019-02-26T00:52:28.167Z,42.60
2019-02-26T00:55:04.906Z,42.71
2019-02-26T00:57:40.492Z,42.75
2019-02-26T01:00:24.690Z,42.70
2019-02-26T01:03:09.141Z,42.68
2019-02-26T01:05:45.770Z,42.72
2019-02-26T01:08:24.986Z,42.74
2019-02-26T01:11:08.432Z,42.85
2019-02-26T01:13:52.745Z,42.78
2019-02-26T01:16:31.787Z,42.70
2019-02-26T01:19:08.537Z,42.73
2019-02-26T01:22:13.937Z,42.73
2019-02-26T01:24:49.857Z,42.80
2019-02-26T01:27:35.169Z,42.70
2019-02-26T01:30:09.677Z,42.74
2019-02-26T01:32:45.188Z,42.81
2019-02-26T01:35:19.542Z,42.90
2019-02-26T01:37:52.046Z,42.98
2019-02-26T01:40:25.978Z,43.03
2019-02-26T01:42:58.527Z,43.10
2019-02-26T01:45:33.675Z,43.32
2019-02-26T01:48:11.436Z,43.50
2019-02-26T01:50:49.383Z,43.73
2019-02-26T01:53:27.226Z,43.86
2019-02-26T01:55:58.418Z,43.97
2019-02-26T01:58:33.415Z,44.02
2019-02-26T02:01:14.053Z,44.08
2019-02-26T02:03:48.807Z,44.12
2019-02-26T02:06:22.008Z,44.14
2019-02-26T02:08:55.967Z,44.17
2019-02-26T02:11:31.189Z,44.25
2019-02-26T02:14:05.742Z,44.34
2019-02-26T02:16:35.645Z,44.43
2019-02-26T02:19:08.450Z,44.50
2019-02-26T02:21:41.549Z,44.47
2019-02-26T02:24:15.573Z,44.39
2019-02-26T02:26:52.635Z,44.47
2019-02-26T02:29:24.527Z,44.49
2019-02-26T02:31:59.441Z,44.56
2019-02-26T02:34:32.833Z,44.65
2019-02-26T02:37:04.955Z,44.83
2019-02-26T02:39:36.673Z,45.02
2019-02-26T02:42:10.714Z,45.08
2019-02-26T02:44:44.833Z,45.12
2019-02-26T02:47:17.135Z,45.17
2019-02-26T02:49:48.747Z,45.04
2019-02-26T02:52:24.254Z,45.07
2019-02-26T02:54:56.994Z,44.95
2019-02-26T02:57:30.003Z,44.88
2019-02-26T03:00:02.953Z,44.85
2019-02-26T03:02:40.534Z,44.81
2019-02-26T03:05:10.201Z,44.80
2019-02-26T03:07:42.875Z,44.88
2019-02-26T03:10:15.741Z,44.93
2019-02-26T03:12:52.197Z,44.90
2019-02-26T03:15:23.979Z,44.94
2019-02-26T03:17:54.586Z,44.95
2019-02-26T03:20:28.646Z,45.06
2019-02-26T03:23:04.588Z,45.20
2019-02-26T03:25:36.958Z,45.19
2019-02-26T03:28:09.097Z,45.19
2019-02-26T03:30:44.130Z,45.17
2019-02-26T03:33:15.172Z,45.26
2019-02-26T03:35:46.809Z,45.29
2019-02-26T03:38:20.631Z,45.38
2019-02-26T03:40:52.788Z,45.45
2019-02-26T03:43:28.650Z,45.48
2019-02-26T03:46:00.053Z,45.48
2019-02-26T03:48:31.678Z,45.48
2019-02-26T03:51:03.615Z,45.43
2019-02-26T03:53:36.346Z,45.47
2019-02-26T03:56:12.538Z,45.45
2019-02-26T03:58:43.076Z,45.49
2019-02-26T04:01:18.312Z,45.55
2019-02-26T04:03:51.015Z,45.61
2019-02-26T04:06:22.640Z,45.62
2019-02-26T04:08:55.995Z,45.71
2019-02-26T04:11:27.820Z,45.76
2019-02-26T04:13:59.609Z,45.84
2019-02-26T04:16:32.467Z,45.77
2019-02-26T04:19:08.906Z,45.73
2019-02-26T04:22:27.135Z,45.76
2019-02-26T04:25:35.482Z,45.76
2019-02-26T04:28:30.673Z,45.73
2019-02-26T04:31:41.581Z,45.94
2019-02-26T04:34:59.202Z,45.94
2019-02-26T04:38:07.505Z,46.03
2019-02-26T04:41:26.434Z,45.95
2019-02-26T04:45:05.178Z,46.08
2019-02-26T04:47:36.141Z,46.21
2019-02-26T04:50:09.874Z,46.35
2019-02-26T04:52:43.494Z,46.63
2019-02-26T04:55:16.583Z,46.94
2019-02-26T04:57:51.008Z,47.04
2019-02-26T05:00:23.522Z,47.17
2019-02-26T05:02:55.334Z,47.16
2019-02-26T05:05:31.972Z,47.00
2019-02-26T05:08:07.641Z,47.01
2019-02-26T05:10:38.484Z,47.00
2019-02-26T05:13:11.227Z,47.03
2019-02-26T05:15:43.632Z,47.24
2019-02-26T05:18:20.320Z,47.42
2019-02-26T05:20:52.238Z,47.54
2019-02-26T05:23:25.900Z,47.63
2019-02-26T05:26:02.954Z,47.85
2019-02-26T05:28:37.653Z,48.12
2019-02-26T05:31:09.163Z,48.06
2019-02-26T05:33:42.299Z,47.94
2019-02-26T05:36:16.460Z,48.01
2019-02-26T05:38:49.283Z,47.97
2019-02-26T05:41:21.058Z,47.91
2019-02-26T05:43:57.849Z,47.99
2019-02-26T05:46:29.923Z,48.00
2019-02-26T05:49:06.815Z,47.94
2019-02-26T05:51:38.198Z,48.06
2019-02-26T05:54:12.261Z,48.07
2019-02-26T05:56:46.140Z,48.15
2019-02-26T05:59:21.718Z,48.15
2019-02-26T06:01:55.940Z,48.08
2019-02-26T06:04:31.731Z,48.01
2019-02-26T06:07:04.696Z,48.09
2019-02-26T06:09:38.039Z,48.10
2019-02-26T06:12:09.698Z,48.13
2019-02-26T06:14:41.356Z,48.10
2019-02-26T06:17:17.209Z,48.22
2019-02-26T06:19:50.315Z,48.34
2019-02-26T06:22:26.028Z,48.34
2019-02-26T06:25:00.307Z,48.63
2019-02-26T06:27:32.439Z,48.72
2019-02-26T06:30:06.544Z,48.73
2019-02-26T06:32:44.661Z,48.73
2019-02-26T06:35:19.606Z,48.93
2019-02-26T06:37:52.430Z,48.99
2019-02-26T06:40:24.329Z,48.99
2019-02-26T06:42:55.973Z,48.92
2019-02-26T06:45:27.634Z,49.12
2019-02-26T06:47:59.251Z,48.86
2019-02-26T06:50:34.088Z,49.06
2019-02-26T06:53:08.529Z,48.85
2019-02-26T06:55:39.914Z,48.91
2019-02-26T06:58:31.873Z,48.89
2019-02-26T07:01:03.774Z,48.95
2019-02-26T07:03:35.392Z,49.04
2019-02-26T07:06:07.337Z,49.01
2019-02-26T07:08:39.391Z,49.13
2019-02-26T07:11:11.107Z,49.20
2019-02-26T07:13:43.870Z,49.28
2019-02-26T07:16:18.043Z,49.35
2019-02-26T07:18:49.529Z,49.22
2019-02-26T07:21:21.590Z,49.17
2019-02-26T07:23:54.613Z,49.19
2019-02-26T07:26:26.642Z,49.23
2019-02-26T07:28:58.901Z,49.28
2019-02-26T07:31:28.825Z,49.31
2019-02-26T07:34:03.152Z,49.48
2019-02-26T07:36:35.203Z,49.49
2019-02-26T07:39:13.084Z,49.49
2019-02-26T07:41:44.660Z,49.76
2019-02-26T07:44:19.627Z,49.66
2019-02-26T07:46:51.897Z,49.86
2019-02-26T07:49:23.554Z,49.94
2019-02-26T07:51:58.268Z,49.93
2019-02-26T07:54:30.020Z,50.00
2019-02-26T07:57:02.858Z,50.03
2019-02-26T07:59:36.829Z,50.00
2019-02-26T08:02:08.876Z,49.96
2019-02-26T08:04:43.509Z,49.90
2019-02-26T08:07:14.862Z,49.94
2019-02-26T08:09:47.016Z,49.88
2019-02-26T08:12:18.634Z,49.81
2019-02-26T08:14:50.322Z,49.87
2019-02-26T08:17:21.945Z,49.93
2019-02-26T08:19:53.580Z,49.82
2019-02-26T08:22:27.543Z,49.83
2019-02-26T08:25:00.545Z,49.79
2019-02-26T08:27:33.861Z,49.89
2019-02-26T08:30:14.478Z,49.72
2019-02-26T08:32:48.384Z,49.72
2019-02-26T08:35:20.741Z,49.62
2019-02-26T08:37:52.529Z,49.60
2019-02-26T08:40:25.530Z,49.54
2019-02-26T08:43:02.419Z,49.53
2019-02-26T08:45:34.094Z,49.45
2019-02-26T08:48:08.513Z,49.30
2019-02-26T08:50:44.497Z,49.22
2019-02-26T08:53:17.251Z,49.17
2019-02-26T08:55:53.619Z,49.06
2019-02-26T08:58:28.059Z,49.00
2019-02-26T09:00:59.152Z,48.91
2019-02-26T09:03:40.147Z,48.88
2019-02-26T09:06:12.814Z,48.88
2019-02-26T09:08:43.020Z,48.82
2019-02-26T09:11:17.272Z,48.80
2019-02-26T09:13:49.048Z,48.72
2019-02-26T09:16:22.301Z,48.70
2019-02-26T09:18:54.183Z,48.61
2019-02-26T09:21:25.922Z,48.56
2019-02-26T09:23:59.497Z,48.51
2019-02-26T09:26:31.307Z,48.45
2019-02-26T09:29:03.644Z,48.37
2019-02-26T09:31:35.305Z,48.36
2019-02-26T09:34:06.915Z,48.33
2019-02-26T09:36:38.675Z,48.30
2019-02-26T09:39:10.801Z,48.27
2019-02-26T09:41:45.533Z,48.21
2019-02-26T09:44:17.351Z,48.15
2019-02-26T09:46:49.019Z,48.11
2019-02-26T09:49:24.586Z,48.05
2019-02-26T09:51:56.823Z,47.99
2019-02-26T09:54:29.860Z,47.93
2019-02-26T09:57:01.941Z,47.86
2019-02-26T09:59:35.770Z,47.81
2019-02-26T10:02:07.020Z,47.75
2019-02-26T10:04:38.803Z,47.71
2019-02-26T10:07:12.518Z,47.64
2019-02-26T10:09:46.494Z,47.58
2019-02-26T10:12:18.682Z,47.50
2019-02-26T10:14:52.329Z,47.44
2019-02-26T10:17:25.027Z,47.38
2019-02-26T10:19:56.965Z,47.30
2019-02-26T10:22:33.311Z,47.23
2019-02-26T10:25:03.626Z,47.15
2019-02-26T10:27:36.163Z,47.11
2019-02-26T10:30:11.238Z,47.04
2019-02-26T10:32:41.087Z,47.00
2019-02-26T10:35:18.507Z,46.95
2019-02-26T10:37:52.555Z,46.90
2019-02-26T10:40:34.298Z,46.81
2019-02-26T10:42:57.665Z,46.69
2019-02-26T10:45:29.834Z,46.63
2019-02-26T10:48:01.863Z,46.58
2019-02-26T10:50:33.591Z,46.54
2019-02-26T10:53:09.579Z,46.44
2019-02-26T10:55:41.803Z,46.33
2019-02-26T10:58:13.837Z,46.26
2019-02-26T11:00:47.117Z,46.10
2019-02-26T11:03:20.244Z,46.01
2019-02-26T11:05:52.505Z,45.95
2019-02-26T11:08:26.758Z,45.86
2019-02-26T11:10:57.671Z,45.76
2019-02-26T11:13:29.352Z,45.69
2019-02-26T11:16:02.986Z,45.60
2019-02-26T11:18:37.865Z,45.50
2019-02-26T11:21:12.390Z,45.35
2019-02-26T11:23:46.512Z,45.28
2019-02-26T11:26:18.911Z,45.20
2019-02-26T11:28:52.154Z,45.09
2019-02-26T11:31:25.342Z,45.01
2019-02-26T11:33:57.303Z,44.91
2019-02-26T11:36:31.225Z,44.76
2019-02-26T11:39:04.265Z,44.65
2019-02-26T11:41:35.986Z,44.52
2019-02-26T11:44:12.526Z,44.45
2019-02-26T11:46:41.436Z,44.20
2019-02-26T11:49:16.894Z,43.95
2019-02-26T11:51:49.616Z,43.87
2019-02-26T11:54:22.448Z,43.83
2019-02-26T11:56:54.201Z,43.74
2019-02-26T11:59:26.077Z,43.57
2019-02-26T12:01:59.108Z,43.51
2019-02-26T12:04:33.346Z,43.38
2019-02-26T12:07:07.422Z,43.34
2019-02-26T12:09:40.777Z,43.05
2019-02-26T12:12:12.662Z,43.07
2019-02-26T12:14:46.660Z,42.86
2019-02-26T12:17:17.896Z,42.88
2019-02-26T12:19:51.475Z,42.84
2019-02-26T12:22:25.214Z,42.68
2019-02-26T12:24:58.774Z,42.54
2019-02-26T12:27:32.519Z,42.49
2019-02-26T12:30:13.348Z,42.42
2019-02-26T12:32:47.263Z,42.40
2019-02-26T12:35:21.324Z,42.35
2019-02-26T12:37:55.882Z,42.09
2019-02-26T12:40:28.050Z,42.03
2019-02-26T12:43:02.017Z,42.00
2019-02-26T12:45:38.641Z,41.87
2019-02-26T12:48:10.285Z,41.76
2019-02-26T12:50:42.628Z,41.73
2019-02-26T12:53:17.205Z,41.61
2019-02-26T12:55:47.848Z,41.52
2019-02-26T12:58:21.355Z,41.39
2019-02-26T13:00:53.309Z,41.25
2019-02-26T13:03:25.129Z,41.17
2019-02-26T13:05:57.527Z,41.04
2019-02-26T13:08:30.367Z,40.98
2019-02-26T13:11:02.072Z,40.66
2019-02-26T13:13:37.138Z,40.67
2019-02-26T13:16:08.827Z,40.66
2019-02-26T13:18:41.810Z,40.60
2019-02-26T13:21:17.234Z,40.51
2019-02-26T13:23:49.068Z,40.33
2019-02-26T13:26:22.521Z,40.20
2019-02-26T13:28:56.076Z,40.13
2019-02-26T13:31:26.602Z,40.10
2019-02-26T13:33:58.393Z,40.05
2019-02-26T13:36:30.825Z,39.87
2019-02-26T13:39:05.469Z,39.83
2019-02-26T13:41:39.958Z,39.73
2019-02-26T13:44:16.827Z,39.78
2019-02-26T13:46:50.224Z,39.68
2019-02-26T13:49:23.569Z,39.54
2019-02-26T13:52:01.930Z,39.56
2019-02-26T13:54:36.041Z,39.50
2019-02-26T13:57:09.252Z,39.50
2019-02-26T13:59:40.931Z,39.39
2019-02-26T14:02:12.839Z,39.29
2019-02-26T14:04:44.541Z,39.13
2019-02-26T14:07:16.696Z,38.86
2019-02-26T14:09:48.483Z,38.92
2019-02-26T14:12:21.846Z,38.78
2019-02-26T14:14:55.143Z,38.78
2019-02-26T14:17:28.497Z,38.72
2019-02-26T14:20:00.365Z,38.74
2019-02-26T14:22:32.052Z,38.70
2019-02-26T14:25:04.037Z,38.63
2019-02-26T14:27:37.321Z,38.57
2019-02-26T14:30:11.581Z,38.57
2019-02-26T14:32:43.575Z,38.47
2019-02-26T14:35:17.793Z,38.36
2019-02-26T14:37:50.812Z,38.13
2019-02-26T14:40:24.223Z,37.99
2019-02-26T14:42:58.426Z,37.84
2019-02-26T14:45:30.172Z,37.85
2019-02-26T14:48:02.373Z,37.78
2019-02-26T14:50:34.139Z,37.68
2019-02-26T14:53:07.991Z,37.67
2019-02-26T14:55:42.015Z,37.68
2019-02-26T14:58:13.737Z,37.60
2019-02-26T15:00:45.399Z,37.51
2019-02-26T15:03:17.373Z,37.33
2019-02-26T15:05:49.172Z,37.28
2019-02-26T15:08:22.965Z,37.26
2019-02-26T15:10:55.359Z,37.21
2019-02-26T15:13:27.344Z,37.23
2019-02-26T15:15:59.218Z,37.10
2019-02-26T15:18:31.012Z,37.10
2019-02-26T15:21:02.872Z,36.94
2019-02-26T15:23:34.527Z,36.98
2019-02-26T15:26:06.704Z,37.02
2019-02-26T15:28:39.625Z,37.02
2019-02-26T15:31:14.067Z,37.02
2019-02-26T15:33:43.305Z,36.97
2019-02-26T15:36:15.026Z,36.90
2019-02-26T15:38:46.848Z,36.87
2019-02-26T15:41:18.741Z,36.90
2019-02-26T15:43:50.380Z,36.89
2019-02-26T15:46:22.110Z,36.90
2019-02-26T15:48:53.769Z,36.88
2019-02-26T15:51:25.490Z,36.88
2019-02-26T15:54:00.368Z,36.88
2019-02-26T15:56:35.263Z,36.86
2019-02-26T15:59:07.299Z,36.86
2019-02-26T16:01:40.998Z,36.82
2019-02-26T16:04:12.760Z,36.80
2019-02-26T16:06:45.535Z,36.76
2019-02-26T16:09:17.495Z,36.77
2019-02-26T16:11:50.066Z,36.73
2019-02-26T16:14:24.068Z,36.72
2019-02-26T16:16:55.900Z,36.74
2019-02-26T16:19:27.743Z,36.76
2019-02-26T16:22:00.474Z,36.76
2019-02-26T16:24:33.388Z,36.77
2019-02-26T16:27:05.068Z,36.75
2019-02-26T16:29:37.900Z,36.77
2019-02-26T16:32:10.773Z,36.77
2019-02-26T16:34:43.763Z,36.78
2019-02-26T16:37:16.627Z,36.81
2019-02-26T16:39:48.305Z,36.81
2019-02-26T16:42:20.449Z,36.84
2019-02-26T16:44:52.753Z,36.86
2019-02-26T16:47:25.796Z,36.91
2019-02-26T16:49:58.646Z,36.89
2019-02-26T16:52:31.407Z,36.91
2019-02-26T16:55:03.197Z,36.94
2019-02-26T16:57:37.530Z,36.95
2019-02-26T17:00:15.653Z,37.00
2019-02-26T17:02:46.360Z,37.05
2019-02-26T17:05:18.106Z,37.04
2019-02-26T17:07:49.743Z,37.04
2019-02-26T17:10:21.915Z,37.06
2019-02-26T17:12:55.266Z,37.09
2019-02-26T17:15:30.262Z,37.14
2019-02-26T17:18:03.220Z,37.18
2019-02-26T17:20:35.318Z,37.22
2019-02-26T17:23:07.257Z,37.23
2019-02-26T17:25:39.052Z,37.28
2019-02-26T17:28:12.402Z,37.34
2019-02-26T17:30:51.646Z,37.40
2019-02-26T17:33:23.333Z,37.47
2019-02-26T17:35:55.152Z,37.55
2019-02-26T17:38:27.170Z,37.61
2019-02-26T17:40:59.133Z,37.66
2019-02-26T17:43:32.856Z,37.69
2019-02-26T17:46:05.276Z,37.73
2019-02-26T17:48:43.392Z,37.77
2019-02-26T17:51:10.827Z,37.80
2019-02-26T17:53:42.595Z,37.91
2019-02-26T17:56:14.416Z,38.13
2019-02-26T17:58:49.467Z,38.29
2019-02-26T18:01:22.485Z,38.47
2019-02-26T18:03:54.548Z,38.62
2019-02-26T18:06:26.295Z,38.71
2019-02-26T18:08:58.778Z,38.82
2019-02-26T18:11:30.853Z,38.89
2019-02-26T18:14:02.631Z,39.00
2019-02-26T18:16:34.565Z,39.10
2019-02-26T18:19:07.286Z,39.22
2019-02-26T18:21:39.110Z,39.36
2019-02-26T18:24:10.804Z,39.49
2019-02-26T18:26:43.860Z,39.60
2019-02-26T18:29:20.425Z,39.65
2019-02-26T18:31:53.426Z,39.62
2019-02-26T18:34:31.027Z,39.64
2019-02-26T18:37:03.037Z,39.67
2019-02-26T18:39:35.922Z,39.68
2019-02-26T18:42:08.370Z,39.77
2019-02-26T18:44:40.207Z,39.88
2019-02-26T18:47:12.103Z,39.95
2019-02-26T18:49:56.994Z,40.03
2019-02-26T18:52:29.053Z,40.11
2019-02-26T18:55:01.019Z,40.14
2019-02-26T18:57:32.896Z,40.17
2019-02-26T19:00:05.714Z,40.18
2019-02-26T19:02:38.804Z,40.18
2019-02-26T19:05:11.972Z,40.22
2019-02-26T19:07:44.333Z,40.25
2019-02-26T19:10:20.746Z,40.30
2019-02-26T19:12:53.007Z,40.35
2019-02-26T19:15:25.214Z,40.46
2019-02-26T19:17:57.241Z,40.55
2019-02-26T19:20:30.945Z,40.72
2019-02-26T19:23:02.598Z,40.82
2019-02-26T19:25:34.793Z,40.85
2019-02-26T19:28:09.827Z,40.93
2019-02-26T19:30:46.287Z,41.02
2019-02-26T19:33:21.703Z,41.07
2019-02-26T19:35:52.536Z,41.09
2019-02-26T19:38:27.266Z,41.23
2019-02-26T19:40:59.670Z,41.47
2019-02-26T19:43:31.472Z,41.64
2019-02-26T19:46:03.247Z,41.79
2019-02-26T19:48:35.297Z,41.93
2019-02-26T19:51:07.266Z,42.05
2019-02-26T19:53:39.163Z,42.17
2019-02-26T19:56:11.594Z,42.26
2019-02-26T19:58:43.431Z,42.33
2019-02-26T20:01:15.569Z,42.43
2019-02-26T20:03:47.364Z,42.54
2019-02-26T20:06:23.267Z,42.68
2019-02-26T20:08:53.993Z,42.81
2019-02-26T20:11:26.267Z,42.93
2019-02-26T20:14:04.479Z,43.03
2019-02-26T20:16:31.616Z,43.13
2019-02-26T20:19:03.461Z,43.20
2019-02-26T20:21:35.499Z,43.27
2019-02-26T20:24:07.399Z,43.38
2019-02-26T20:26:39.427Z,43.45
2019-02-26T20:29:11.794Z,43.51
2019-02-26T20:31:43.835Z,43.65
2019-02-26T20:34:18.077Z,43.70
2019-02-26T20:36:51.848Z,43.75
2019-02-26T20:39:23.554Z,43.83
2019-02-26T20:41:55.699Z,43.89
2019-02-26T20:44:28.329Z,43.96
2019-02-26T20:47:00.095Z,43.96
2019-02-26T20:49:32.009Z,43.97
2019-02-26T20:52:03.756Z,43.92
2019-02-26T20:54:35.849Z,43.94
2019-02-26T20:57:07.567Z,43.99
2019-02-26T20:59:40.422Z,44.06
2019-02-26T21:02:12.120Z,44.17
2019-02-26T21:04:43.987Z,44.25
2019-02-26T21:07:15.828Z,44.26
2019-02-26T21:09:47.580Z,44.28
2019-02-26T21:12:19.487Z,44.30
2019-02-26T21:14:51.806Z,44.40
2019-02-26T21:17:25.853Z,44.53
2019-02-26T21:19:57.474Z,44.70
2019-02-26T21:22:29.218Z,44.84
2019-02-26T21:25:02.393Z,44.90
2019-02-26T21:27:36.811Z,44.99
2019-02-26T21:30:11.820Z,45.01
2019-02-26T21:32:39.013Z,45.05
2019-02-26T21:35:11.545Z,45.06
2019-02-26T21:37:43.597Z,45.13
2019-02-26T21:40:17.096Z,45.16
2019-02-26T21:42:48.968Z,45.27
2019-02-26T21:45:23.706Z,45.32
2019-02-26T21:47:55.479Z,45.35
2019-02-26T21:50:29.837Z,45.41
2019-02-26T21:53:03.204Z,45.47
2019-02-26T21:55:43.891Z,45.52
2019-02-26T21:58:09.269Z,45.69
2019-02-26T22:00:41.627Z,45.82
2019-02-26T22:03:13.353Z,45.89
2019-02-26T22:05:45.148Z,45.94
2019-02-26T22:08:18.592Z,46.00
2019-02-26T22:10:50.437Z,46.08
2019-02-26T22:13:23.426Z,45.98
2019-02-26T22:15:57.177Z,45.90
2019-02-26T22:18:34.009Z,45.87
2019-02-26T22:21:03.120Z,45.83
2019-02-26T22:23:34.949Z,45.83
2019-02-26T22:26:08.230Z,45.93
2019-02-26T22:28:42.666Z,45.96
2019-02-26T22:31:14.593Z,46.09
2019-02-26T22:33:50.013Z,46.24
2019-02-26T22:36:21.682Z,46.43
2019-02-26T22:38:53.836Z,46.53
2019-02-26T22:41:28.186Z,46.64
2019-02-26T22:43:59.956Z,46.74
2019-02-26T22:46:33.899Z,46.81
2019-02-26T22:49:07.079Z,46.85
2019-02-26T22:51:38.725Z,46.86
2019-02-26T22:54:11.989Z,46.91
2019-02-26T22:56:43.740Z,47.02
2019-02-26T22:59:15.591Z,47.20
2019-02-26T23:01:48.184Z,47.33
2019-02-26T23:04:20.456Z,47.48
2019-02-26T23:06:52.074Z,47.63
2019-02-26T23:09:27.894Z,47.77
2019-02-26T23:12:00.017Z,47.84
2019-02-26T23:14:31.688Z,47.86
2019-02-26T23:17:04.984Z,47.85
2019-02-26T23:19:37.448Z,47.83
2019-02-26T23:22:10.327Z,47.78
2019-02-26T23:24:44.454Z,47.76
2019-02-26T23:27:16.210Z,47.71
2019-02-26T23:29:47.830Z,47.67
2019-02-26T23:32:20.626Z,47.67
2019-02-26T23:35:08.881Z,47.64
2019-02-26T23:37:40.674Z,47.60
2019-02-26T23:40:14.277Z,47.60
2019-02-26T23:42:46.115Z,47.64
2019-02-26T23:45:17.864Z,47.71
2019-02-26T23:47:49.743Z,47.88
2019-02-26T23:50:23.296Z,47.92
2019-02-26T23:52:54.922Z,48.04
2019-02-26T23:55:27.713Z,48.19
2019-02-26T23:57:59.294Z,48.37
